Contact Us:
Email: info@sawbill.com
Phone: (218)663-7150
Fax: (218)663-7980
Mail: 4620 Sawbill Trail
Box 2129
Tofte, MN 55615


Powered by
Movable Type 3.15
 
Sawbill Weather History Archives: November 2012
Current Sawbill Weather History | « October 2012 | December 2012 »


Date

High
Temperature

Low
Temperature

Barometric
Pressure

Relative
Humidity 7AM

9 AM
Temperature

Moisture

Snow

11/30/12 31 20 30.12 98% 31 Trace
11/29/12 20 12 30.53 86% 20 .03" .5"
11/28/12 22 5 30.47 68% 12 Trace Trace
11/27/12 23 6 30.45 67% 6 .07" 1"
11/26/12 16 8 30.30 77% 16 Trace Trace
11/25/12 20 9 30.47 65% 9 .07" 1.5"
11/24/12 20 11 30.03 86% 19 .12" 2"
11/23/12 19 11 30.45 76% 11 .05" .5"
11/22/12 46 16 30.27 81% 16 1" 11"
11/21/12 44 32 29.88 98% 36 0
11/20/12 40 30 30.08 88% 31 0
11/19/12 43 31 30.45 78% 32 0
11/18/12 39 31 30.36 91% 33 0
11/17/12 41 33 30.08 88% 33 .2"
11/16/12 33 23 30.53 98% 33 0
11/15/12 36 13 30.74 80% 23 0
11/14/12 35 25 30.45 75% 32 0
11/13/12 31 21 30.53 78% 26 0
11/12/12 24 20 30.50 80% 21 .01" 1"
11/11/12 48 20 30.06 67% 20 Trace Trace
11/10/12 48 32 29.88 98% 48 .09"
11/9/12 37 26 30.15 98% 32 .1" Trace
11/8/12 41 31 30.47 80% 31 Trace Trace
11/7/12 37 33 30.24 98% 35 .09" Trace
11/6/12 34 33 30.33 94% 34 Trace Trace
11/5/12 33 28 30.06 98% 29 .08" .5"
11/4/12 31 27 29.92 68% 28 Trace Trace
11/3/12 32 25 30.68 69% 28 0
11/2/12 32 22 30.65 76% 28 0
11/1/12 35 21 30.50 71% 22 Trace Trace
 


Home I Trip Planning I Rentals and Outfitting I Reservations I Campgrounds I Sawbill Store I Sawbill News I Contact

© 1997 - 2017, Sawbill Canoe Outfitters, Inc. I Privacy Policy